Time;durP1;ratioP1;P1;durP2;ratioP2;P2;SDS_P1;SDS_P2;PMS_P1;PMS_P2;Temp;Humidity;BMP_temperature;BMP_pressure;BME280_temperature;BME280_humidity;BME280_pressure;Samples;Min_cycle;Max_cycle;Signal;HPM_P1;HPM_P2
2023/05/09 00:00:20;;;;;;;6.38;5.03;;;;;;;21.30;60.59;98829.91;2070309;28;20045;-51
2023/05/09 00:01:21;;;;;;;5.60;4.72;;;;;;;21.28;60.43;98828.47;2072667;28;20060;-55
2023/05/09 00:02:22;;;;;;;6.07;4.13;;;;;;;21.29;60.53;98824.75;2071566;28;20160;-56
2023/05/09 00:03:23;;;;;;;4.82;4.30;;;;;;;21.30;60.32;98827.19;2071623;28;20134;-49
2023/05/09 00:04:25;;;;;;;5.20;4.57;;;;;;;21.28;60.49;98828.47;2068774;28;20049;-53
2023/05/09 00:05:25;;;;;;;4.93;4.53;;;;;;;21.28;60.57;98836.56;2067569;28;20071;-54
2023/05/09 00:06:27;;;;;;;7.30;4.65;;;;;;;21.29;60.47;98828.25;2067562;28;20083;-56
2023/05/09 00:07:28;;;;;;;5.57;5.03;;;;;;;21.28;60.28;98831.16;2068654;28;20593;-56
2023/05/09 00:08:30;;;;;;;5.13;4.63;;;;;;;21.29;60.40;98828.25;2069035;28;20065;-50
2023/05/09 00:09:30;;;;;;;5.05;4.30;;;;;;;21.27;60.31;98830.34;2068383;28;20569;-49
2023/05/09 00:10:33;;;;;;;5.53;4.35;;;;;;;21.30;60.48;98826.38;2070611;28;20132;-56
2023/05/09 00:11:34;;;;;;;5.07;4.57;;;;;;;21.29;60.49;98830.13;2069082;28;20103;-51
2023/05/09 00:12:36;;;;;;;4.80;4.10;;;;;;;21.28;60.37;98828.47;2069471;28;22161;-55
2023/05/09 00:13:37;;;;;;;5.60;4.57;;;;;;;21.32;60.20;98827.00;2072896;28;20099;-53
2023/05/09 00:14:39;;;;;;;5.43;4.65;;;;;;;21.28;60.53;98831.16;2071241;28;20500;-56
2023/05/09 00:15:40;;;;;;;5.47;4.57;;;;;;;21.27;60.26;98824.94;2070593;28;20077;-54
2023/05/09 00:16:41;;;;;;;5.95;4.88;;;;;;;21.28;60.55;98825.75;2071961;28;20071;-50
2023/05/09 00:17:43;;;;;;;4.80;4.28;;;;;;;21.29;60.19;98824.75;2070580;28;20134;-55
2023/05/09 00:18:45;;;;;;;6.18;4.53;;;;;;;21.27;60.17;98821.41;2069147;28;20088;-55
2023/05/09 00:19:46;;;;;;;5.10;4.15;;;;;;;21.24;60.65;98819.16;2072740;28;20467;-54
2023/05/09 00:20:48;;;;;;;5.97;4.13;;;;;;;21.26;60.35;98826.00;2071189;28;20059;-53
2023/05/09 00:21:49;;;;;;;4.63;4.05;;;;;;;21.28;60.24;98825.75;2066280;28;20095;-59
2023/05/09 00:22:51;;;;;;;5.03;4.15;;;;;;;21.28;60.42;98821.19;2072415;28;20531;-48
2023/05/09 00:23:51;;;;;;;5.70;4.35;;;;;;;21.29;60.40;98827.44;2067629;28;20053;-47
2023/05/09 00:24:53;;;;;;;4.63;3.67;;;;;;;21.35;59.97;98821.16;2068014;28;20057;-48
2023/05/09 00:25:55;;;;;;;5.20;4.32;;;;;;;21.29;60.38;98827.44;2066908;28;20053;-50
2023/05/09 00:26:57;;;;;;;4.90;4.30;;;;;;;21.28;60.39;98821.19;2070886;28;20568;-52
2023/05/09 00:27:58;;;;;;;4.60;4.10;;;;;;;21.30;60.31;98821.00;2070859;28;21761;-48
2023/05/09 00:28:59;;;;;;;;;;;;;;;21.22;60.52;98818.53;2070338;28;20044;-49
2023/05/09 00:30:00;;;;;;;4.60;3.97;;;;;;;21.25;60.28;98820.81;2065976;28;19933;-55
2023/05/09 00:31:04;;;;;;;5.30;4.60;;;;;;;21.27;60.44;98829.50;2070644;28;20055;-56
2023/05/09 00:32:05;;;;;;;4.55;4.15;;;;;;;21.28;60.30;98821.19;2067844;28;20049;-49
2023/05/09 00:33:06;;;;;;;;;;;;;;;21.23;60.34;98830.97;2070433;28;20108;-56
2023/05/09 00:34:07;;;;;;;4.65;4.25;;;;;;;21.21;60.71;98825.81;2070548;28;19951;-56
2023/05/09 00:35:08;;;;;;;;;;;;;;;21.13;60.60;98824.19;2071555;28;20068;-58
2023/05/09 00:36:09;;;;;;;5.05;4.20;;;;;;;21.17;60.71;98825.44;2071433;28;19928;-54
2023/05/09 00:37:10;;;;;;;;;;;;;;;21.10;60.66;98823.78;2068400;28;20136;-54
2023/05/09 00:38:11;;;;;;;5.05;4.45;;;;;;;21.19;60.73;98830.59;2069992;28;20414;-57
2023/05/09 00:39:13;;;;;;;4.95;4.40;;;;;;;21.20;60.34;98833.09;2069453;28;20056;-56
2023/05/09 00:40:14;;;;;;;3.97;3.58;;;;;;;21.23;60.56;98822.88;2068339;28;20123;-52
2023/05/09 00:41:17;;;;;;;4.82;4.32;;;;;;;21.23;60.55;98826.44;2072336;28;20551;-55
2023/05/09 00:42:18;;;;;;;4.03;3.63;;;;;;;21.24;60.31;98825.38;2070135;28;20135;-52
2023/05/09 00:43:19;;;;;;;;;;;;;;;21.17;60.63;98832.66;2073185;28;20054;-49
2023/05/09 00:44:20;;;;;;;;;;;;;;;21.07;60.78;98829.63;2070826;28;19936;-53
2023/05/09 00:45:21;;;;;;;4.63;4.00;;;;;;;21.15;60.49;98829.38;2070059;28;20873;-59
2023/05/09 00:46:22;;;;;;;5.28;4.07;;;;;;;21.20;60.41;98827.69;2073885;28;20370;-53
2023/05/09 00:47:24;;;;;;;4.63;3.97;;;;;;;21.26;60.38;98834.09;2073036;28;20564;-56
2023/05/09 00:48:25;;;;;;;4.63;4.22;;;;;;;21.26;60.30;98826.00;2070996;28;20060;-51
2023/05/09 00:49:27;;;;;;;5.63;4.28;;;;;;;21.30;60.28;98826.38;2071748;28;20053;-52
2023/05/09 00:50:28;;;;;;;5.00;4.05;;;;;;;21.30;60.36;98823.69;2068549;28;20727;-53
2023/05/09 00:51:29;;;;;;;4.78;4.25;;;;;;;21.30;60.27;98821.81;2068755;28;20053;-49
2023/05/09 00:52:32;;;;;;;4.22;3.83;;;;;;;21.31;60.25;98822.63;2069310;28;20108;-57
2023/05/09 00:53:34;;;;;;;7.00;4.72;;;;;;;21.33;59.93;98821.38;2070368;28;20046;-50
2023/05/09 00:54:35;;;;;;;4.72;4.15;;;;;;;21.32;60.05;98821.59;2071217;28;20091;-54
2023/05/09 00:55:37;;;;;;;6.50;4.10;;;;;;;21.34;60.10;98820.34;2069413;28;20053;-53
2023/05/09 00:56:39;;;;;;;4.50;3.83;;;;;;;21.34;59.98;98822.19;2070735;28;20091;-49
2023/05/09 00:57:41;;;;;;;5.03;4.25;;;;;;;21.29;60.17;98822.03;2067060;28;20546;-52
2023/05/09 00:58:42;;;;;;;4.45;3.83;;;;;;;21.32;60.30;98814.34;2069671;28;20092;-54
2023/05/09 00:59:44;;;;;;;5.28;4.53;;;;;;;21.31;60.01;98814.53;2069105;28;21723;-51
2023/05/09 01:00:44;;;;;;;5.28;4.57;;;;;;;21.30;60.22;98812.88;2071271;28;20605;-56
2023/05/09 01:01:46;;;;;;;4.65;4.22;;;;;;;21.33;60.01;98818.66;2068033;28;20057;-58
2023/05/09 01:02:49;;;;;;;5.18;4.68;;;;;;;21.34;60.12;98808.69;2068544;28;21145;-53
2023/05/09 01:03:52;;;;;;;5.07;4.43;;;;;;;21.33;59.88;98807.06;2069842;28;20072;-53
2023/05/09 01:04:52;;;;;;;4.93;4.43;;;;;;;21.34;59.81;98816.78;2073491;28;20057;-51
2023/05/09 01:06:05;;;;;;;3.95;3.63;;;;;;;21.28;60.06;98813.09;2068155;28;20074;-55
2023/05/09 01:07:10;;;;;;;4.65;4.20;;;;;;;21.25;60.07;98810.84;2070464;28;20107;-49
2023/05/09 01:08:21;;;;;;;5.28;3.78;;;;;;;21.27;60.05;98807.94;2071711;28;22101;-53
2023/05/09 01:09:29;;;;;;;4.35;3.60;;;;;;;21.26;60.17;98809.00;2070322;28;20049;-53
2023/05/09 01:10:39;;;;;;;10.05;4.72;;;;;;;21.27;60.00;98813.31;2068170;28;20055;-57
2023/05/09 01:11:47;;;;;;;4.60;4.20;;;;;;;21.27;60.10;98807.94;2070434;28;20164;-54
2023/05/09 01:12:56;;;;;;;6.95;4.00;;;;;;;21.27;60.21;98808.75;2069334;28;20045;-49
2023/05/09 01:14:07;;;;;;;4.70;4.13;;;;;;;21.26;60.08;98806.28;2070208;28;20060;-53
2023/05/09 01:15:12;;;;;;;;;;;;;;;21.14;60.22;98806.94;2070274;28;20057;-54
2023/05/09 01:16:19;;;;;;;3.97;3.38;;;;;;;21.19;60.20;98812.53;2072205;28;20046;-55
2023/05/09 01:17:31;;;;;;;5.18;3.95;;;;;;;21.23;60.19;98804.00;2072476;28;20052;-50
2023/05/09 01:18:39;;;;;;;4.65;4.07;;;;;;;21.23;60.13;98809.38;2070759;28;20053;-56
2023/05/09 01:19:57;;;;;;;5.15;4.15;;;;;;;21.23;60.46;98807.56;2070154;28;20106;-56
2023/05/09 01:21:02;;;;;;;4.43;3.83;;;;;;;21.24;60.28;98806.50;2070815;28;20049;-53
2023/05/09 01:22:09;;;;;;;9.57;4.47;;;;;;;21.26;60.00;98804.41;2072443;28;20560;-49
2023/05/09 01:23:51;;;;;;;5.80;3.65;;;;;;;21.25;60.17;98802.75;2072034;28;20084;-56
2023/05/09 01:25:25;;;;;;;4.90;4.00;;;;;;;21.23;60.26;98809.38;2069253;28;20153;-52
2023/05/09 01:26:43;;;;;;;4.50;4.10;;;;;;;21.20;60.44;98808.81;2064127;28;20073;-53
2023/05/09 01:27:52;;;;;;;4.75;4.03;;;;;;;21.23;60.20;98802.16;2068984;28;20054;-58
2023/05/09 01:29:14;;;;;;;5.63;4.32;;;;;;;21.22;60.03;98805.06;2073071;28;20060;-51
2023/05/09 01:30:16;;;;;;;6.30;3.78;;;;;;;21.23;60.16;98799.44;2071759;28;20462;-54
2023/05/09 01:31:19;;;;;;;4.10;3.53;;;;;;;21.26;60.06;98809.00;2071924;28;20164;-57
2023/05/09 01:32:23;;;;;;;3.28;3.00;;;;;;;21.27;60.01;98802.53;2070353;28;20057;-54
2023/05/09 01:33:28;;;;;;;3.97;3.40;;;;;;;21.25;59.98;98805.44;2072673;28;20128;-55
2023/05/09 01:34:31;;;;;;;4.90;4.40;;;;;;;21.27;59.89;98807.94;2071134;28;20053;-51
2023/05/09 01:35:38;;;;;;;4.90;3.70;;;;;;;21.27;60.14;98802.53;2067052;28;20064;-56
2023/05/09 01:36:41;;;;;;;4.72;4.13;;;;;;;21.27;59.85;98802.53;2071881;28;20846;-53
2023/05/09 01:37:45;;;;;;;3.88;3.58;;;;;;;21.29;59.88;98808.56;2075468;28;20699;-52
2023/05/09 01:38:49;;;;;;;4.47;4.07;;;;;;;21.26;60.00;98803.59;2070639;28;20095;-54
2023/05/09 01:39:55;;;;;;;4.55;4.15;;;;;;;21.28;59.99;98809.56;2072916;28;21311;-51
2023/05/09 01:40:57;;;;;;;5.00;4.00;;;;;;;21.26;60.25;98814.38;2073151;28;20499;-48
2023/05/09 01:42:02;;;;;;;4.28;3.70;;;;;;;21.26;60.15;98809.00;2072471;28;20041;-52
2023/05/09 01:43:07;;;;;;;5.25;4.57;;;;;;;21.27;60.09;98813.31;2072482;28;20838;-52
2023/05/09 01:44:11;;;;;;;3.83;3.50;;;;;;;21.22;60.13;98813.97;2069075;28;20442;-50
2023/05/09 01:45:15;;;;;;;5.75;4.07;;;;;;;21.23;60.14;98814.78;2070423;28;20149;-51
2023/05/09 01:46:20;;;;;;;4.03;3.63;;;;;;;21.21;60.25;98817.72;2070599;28;20057;-53
2023/05/09 01:47:22;;;;;;;3.78;3.42;;;;;;;21.21;60.30;98817.72;2071412;28;20057;-57
2023/05/09 01:48:26;;;;;;;4.18;3.63;;;;;;;21.20;60.24;98819.59;2071557;28;20167;-59
2023/05/09 01:49:30;;;;;;;4.55;4.07;;;;;;;21.21;60.27;98820.41;2073932;28;20056;-57
2023/05/09 01:50:33;;;;;;;4.55;3.70;;;;;;;21.19;60.33;98815.22;2070954;28;20046;-59
2023/05/09 01:51:35;;;;;;;4.20;3.80;;;;;;;21.24;60.21;98819.16;2070043;28;20101;-58
2023/05/09 01:52:38;;;;;;;4.80;3.53;;;;;;;21.25;60.19;98824.31;2073255;28;20067;-57
2023/05/09 01:53:41;;;;;;;4.07;3.22;;;;;;;21.25;60.21;98832.41;2072856;28;20145;-54
2023/05/09 01:54:45;;;;;;;3.88;3.47;;;;;;;21.23;60.01;98820.19;2073063;28;20509;-52
2023/05/09 01:55:48;;;;;;;4.65;3.97;;;;;;;21.20;60.42;98825.00;2070865;28;20747;-50
2023/05/09 01:56:50;;;;;;;3.22;2.92;;;;;;;21.19;60.13;98828.72;2072664;28;21087;-48
2023/05/09 01:57:53;;;;;;;4.35;3.67;;;;;;;21.24;59.86;98829.94;2069808;28;20156;-55
2023/05/09 01:58:55;;;;;;;4.00;3.60;;;;;;;21.23;60.02;98822.88;2069312;28;20581;-51
2023/05/09 01:59:58;;;;;;;4.50;4.05;;;;;;;21.27;60.10;98819.53;2072709;28;20071;-58
2023/05/09 02:01:02;;;;;;;4.03;3.63;;;;;;;21.26;60.15;98820.59;2072163;28;20045;-50
2023/05/09 02:02:04;;;;;;;4.65;4.15;;;;;;;21.29;59.72;98822.03;2073753;28;20057;-58
2023/05/09 02:03:06;;;;;;;3.95;3.55;;;;;;;21.28;60.06;98820.38;2073441;28;20333;-53
2023/05/09 02:04:08;;;;;;;4.05;3.70;;;;;;;21.28;59.83;98823.06;2071494;28;20065;-50
2023/05/09 02:05:09;;;;;;;5.55;3.80;;;;;;;21.27;59.71;98824.94;2073792;28;20060;-48
2023/05/09 02:06:11;;;;;;;5.65;4.22;;;;;;;21.26;59.77;98817.06;2070539;28;20083;-52
2023/05/09 02:07:12;;;;;;;4.68;4.07;;;;;;;21.26;59.90;98822.47;2071840;28;20094;-55
2023/05/09 02:08:19;;;;;;;3.65;3.35;;;;;;;21.25;59.83;98818.09;2072848;28;20057;-52
2023/05/09 02:09:21;;;;;;;4.70;3.67;;;;;;;21.24;59.79;98824.56;2074146;28;20136;-52
2023/05/09 02:10:24;;;;;;;4.68;4.28;;;;;;;21.19;60.22;98817.09;2070663;28;20052;-49
2023/05/09 02:11:25;;;;;;;4.15;3.67;;;;;;;21.20;60.15;98819.59;2072948;28;20045;-51
2023/05/09 02:12:26;;;;;;;;;;;;;;;21.11;60.28;98820.88;2073195;28;20045;-52
2023/05/09 02:13:27;;;;;;;;;;;;;;;21.04;60.30;98822.78;2071452;28;19929;-56
2023/05/09 02:14:28;;;;;;;4.43;4.00;;;;;;;21.07;60.69;98810.75;2073145;28;19929;-52
2023/05/09 02:15:29;;;;;;;3.45;3.05;;;;;;;21.13;60.23;98815.28;2067709;28;21812;-50
2023/05/09 02:16:33;;;;;;;4.53;3.72;;;;;;;21.17;60.33;98814.63;2059210;28;20053;-57
2023/05/09 02:17:33;;;;;;;4.65;4.10;;;;;;;21.20;59.96;98813.34;2069849;28;20099;-48
2023/05/09 02:18:36;;;;;;;4.85;4.20;;;;;;;21.23;60.14;98814.78;2069969;28;20060;-50
2023/05/09 02:19:36;;;;;;;5.43;4.18;;;;;;;21.24;60.17;98816.47;2069795;28;20053;-53
2023/05/09 02:20:38;;;;;;;;;;;;;;;21.11;60.24;98812.78;2068943;28;21829;-49
2023/05/09 02:21:38;;;;;;;4.78;3.95;;;;;;;21.15;60.17;98808.63;2067314;28;20501;-55
2023/05/09 02:22:42;;;;;;;3.72;3.20;;;;;;;21.14;60.20;98806.94;2066027;28;20107;-51
2023/05/09 02:23:43;;;;;;;4.32;3.88;;;;;;;21.18;59.84;98808.19;2069175;28;20507;-50
2023/05/09 02:24:45;;;;;;;3.75;3.38;;;;;;;21.18;60.07;98801.97;2069898;28;20080;-57
2023/05/09 02:25:45;;;;;;;4.50;3.53;;;;;;;21.17;59.90;98803.00;2073931;28;20045;-46
2023/05/09 02:26:47;;;;;;;4.18;3.75;;;;;;;21.16;60.13;98799.47;2065764;28;20756;-52
2023/05/09 02:27:50;;;;;;;3.75;3.30;;;;;;;21.16;60.10;98795.97;2071743;28;20865;-51
2023/05/09 02:28:53;;;;;;;4.28;3.65;;;;;;;21.15;60.30;98792.44;2069602;28;20538;-57
2023/05/09 02:29:56;;;;;;;4.32;3.50;;;;;;;21.17;59.95;98794.91;2071809;28;20110;-47
2023/05/09 02:31:00;;;;;;;4.15;3.75;;;;;;;21.15;59.97;98791.63;2068919;28;20747;-51
2023/05/09 02:32:03;;;;;;;3.92;3.53;;;;;;;21.18;60.02;98794.69;2071272;28;20053;-50
2023/05/09 02:33:08;;;;;;;3.83;3.45;;;;;;;21.18;59.82;98792.00;2070384;28;20716;-58
2023/05/09 02:34:10;;;;;;;3.50;3.20;;;;;;;21.16;60.08;98791.38;2072839;28;20053;-55
2023/05/09 02:35:15;;;;;;;4.70;3.50;;;;;;;21.16;60.06;98794.06;2066779;28;20166;-56
2023/05/09 02:36:17;;;;;;;4.30;3.88;;;;;;;21.16;60.02;98787.88;2071485;28;20088;-55
2023/05/09 02:37:19;;;;;;;4.47;3.42;;;;;;;21.17;59.97;98786.81;2069899;28;20052;-55
2023/05/09 02:38:20;;;;;;;3.20;2.90;;;;;;;21.14;60.26;98788.06;2073755;28;20060;-54
2023/05/09 02:39:22;;;;;;;4.20;3.70;;;;;;;21.15;60.28;98794.31;2069475;28;20049;-53
2023/05/09 02:40:25;;;;;;;4.05;3.70;;;;;;;21.15;60.11;98787.03;2067752;28;20061;-52
2023/05/09 02:41:27;;;;;;;4.80;4.03;;;;;;;21.17;59.86;98787.66;2070422;28;20137;-56
2023/05/09 02:42:29;;;;;;;4.45;3.78;;;;;;;21.15;59.83;98784.34;2070499;28;20048;-52
2023/05/09 02:43:30;;;;;;;3.95;3.47;;;;;;;21.16;60.03;98788.69;2072814;28;20931;-54
2023/05/09 02:44:31;;;;;;;4.03;3.20;;;;;;;21.16;60.01;98791.38;2071384;28;20060;-57
2023/05/09 02:45:33;;;;;;;3.67;3.35;;;;;;;21.16;59.88;98790.56;2068744;28;20048;-55
2023/05/09 02:46:34;;;;;;;4.35;3.95;;;;;;;21.14;60.22;98788.06;2067837;28;20052;-56
2023/05/09 02:47:37;;;;;;;4.57;3.65;;;;;;;21.15;59.92;98794.31;2068545;28;20048;-50
2023/05/09 02:48:38;;;;;;;4.28;3.53;;;;;;;21.14;59.78;98787.25;2069674;28;20155;-54
2023/05/09 02:49:39;;;;;;;3.33;3.03;;;;;;;21.12;59.97;98787.47;2070745;28;20215;-53
2023/05/09 02:50:41;;;;;;;3.75;3.10;;;;;;;21.15;59.96;98783.53;2073080;28;20053;-57
2023/05/09 02:51:43;;;;;;;5.00;3.90;;;;;;;21.14;60.21;98792.63;2069393;28;20064;-57
2023/05/09 02:52:44;;;;;;;3.90;3.08;;;;;;;21.15;59.85;98789.75;2069083;28;20052;-52
2023/05/09 02:53:46;;;;;;;3.72;3.42;;;;;;;21.18;60.06;98785.78;2069751;28;20053;-53
2023/05/09 02:54:47;;;;;;;5.50;3.55;;;;;;;21.16;59.77;98790.56;2068099;28;20523;-52
2023/05/09 02:55:49;;;;;;;3.80;3.20;;;;;;;21.17;59.88;98793.06;2070360;28;20123;-54
2023/05/09 02:56:49;;;;;;;3.88;3.42;;;;;;;21.16;59.87;98793.25;2068147;28;20159;-48
2023/05/09 02:57:51;;;;;;;4.30;3.17;;;;;;;21.13;60.02;98788.31;2071071;28;20049;-58
2023/05/09 02:58:52;;;;;;;3.63;2.85;;;;;;;21.12;59.84;98783.97;2067746;28;21217;-58
2023/05/09 02:59:54;;;;;;;3.53;3.22;;;;;;;21.17;59.83;98793.06;2072321;28;20126;-56
2023/05/09 03:00:54;;;;;;;4.82;3.72;;;;;;;21.16;59.82;98788.69;2069972;28;21527;-50
2023/05/09 03:01:56;;;;;;;4.25;3.42;;;;;;;21.16;59.94;98787.88;2075598;28;20068;-50
2023/05/09 03:02:59;;;;;;;4.30;3.90;;;;;;;21.15;59.75;98786.22;2067765;28;20141;-58
2023/05/09 03:04:00;;;;;;;3.92;3.63;;;;;;;21.15;59.66;98789.75;2068360;28;20053;-52
2023/05/09 03:05:01;;;;;;;3.70;2.95;;;;;;;21.14;59.79;98792.63;2070529;28;20132;-53
2023/05/09 03:06:03;;;;;;;3.20;2.85;;;;;;;21.16;59.83;98791.38;2071018;28;20045;-57
2023/05/09 03:07:04;;;;;;;4.25;3.85;;;;;;;21.14;59.95;98792.63;2075181;28;20755;-54
2023/05/09 03:08:06;;;;;;;4.32;3.70;;;;;;;21.14;59.93;98790.75;2071658;28;20046;-56
2023/05/09 03:09:07;;;;;;;3.92;3.53;;;;;;;21.16;59.71;98790.56;2070195;28;20060;-58
2023/05/09 03:10:10;;;;;;;;;;;;;;;21.07;59.76;98790.00;2069621;28;20053;-53
2023/05/09 03:11:10;;;;;;;3.70;3.25;;;;;;;21.10;59.82;98792.25;2073320;28;19925;-54
2023/05/09 03:12:12;;;;;;;4.43;4.03;;;;;;;21.09;60.16;98792.44;2070603;28;20633;-57
2023/05/09 03:13:13;;;;;;;3.88;3.50;;;;;;;21.14;59.94;98787.25;2069928;28;20102;-55
2023/05/09 03:14:14;;;;;;;3.30;3.00;;;;;;;21.16;59.67;98791.38;2068725;28;20053;-59
2023/05/09 03:15:15;;;;;;;3.22;2.88;;;;;;;21.14;59.63;98790.75;2071465;28;20056;-48
2023/05/09 03:16:18;;;;;;;3.08;2.78;;;;;;;21.14;59.83;98785.38;2069231;28;20053;-56
2023/05/09 03:17:20;;;;;;;4.32;3.50;;;;;;;21.16;59.76;98796.78;2073321;28;20052;-52
2023/05/09 03:18:23;;;;;;;3.95;3.20;;;;;;;21.16;59.88;98787.88;2072879;28;20664;-52
2023/05/09 03:19:24;;;;;;;3.22;3.00;;;;;;;21.17;59.49;98784.97;2069359;28;20057;-57
2023/05/09 03:20:26;;;;;;;3.20;2.65;;;;;;;21.18;59.52;98783.09;2073849;28;20135;-51
2023/05/09 03:21:26;;;;;;;3.70;3.40;;;;;;;21.19;59.62;98787.44;2070841;28;20057;-52
2023/05/09 03:22:28;;;;;;;3.55;3.08;;;;;;;21.17;59.31;98784.13;2071870;28;20048;-50
2023/05/09 03:23:29;;;;;;;3.40;3.10;;;;;;;21.17;59.79;98781.41;2074616;28;20499;-56
2023/05/09 03:24:30;;;;;;;4.13;2.88;;;;;;;21.16;59.32;98783.28;2074278;28;20056;-56
2023/05/09 03:25:31;;;;;;;3.53;3.20;;;;;;;21.14;59.68;98777.28;2068183;28;20087;-53
2023/05/09 03:26:34;;;;;;;3.30;3.00;;;;;;;21.15;59.72;98784.34;2071892;28;21350;-58
2023/05/09 03:27:35;;;;;;;3.63;3.13;;;;;;;21.17;59.67;98781.41;2072351;28;20176;-53
2023/05/09 03:28:38;;;;;;;3.78;3.22;;;;;;;21.17;59.49;98784.97;2067560;28;20525;-47
2023/05/09 03:29:39;;;;;;;3.67;3.33;;;;;;;21.15;59.68;98784.34;2070258;28;20764;-54
2023/05/09 03:30:40;;;;;;;3.75;3.42;;;;;;;21.17;59.77;98786.81;2071779;28;20049;-51
2023/05/09 03:31:41;;;;;;;3.50;3.15;;;;;;;21.17;59.45;98786.81;2070223;28;20108;-53
2023/05/09 03:32:43;;;;;;;3.63;3.33;;;;;;;21.13;59.47;98785.59;2071973;28;20053;-52
2023/05/09 03:33:45;;;;;;;3.58;3.28;;;;;;;21.13;59.42;98797.22;2072506;28;20052;-47
2023/05/09 03:34:46;;;;;;;3.30;3.00;;;;;;;21.14;59.70;98787.25;2070840;28;20081;-51
2023/05/09 03:35:47;;;;;;;3.40;3.10;;;;;;;21.09;59.48;98785.22;2071251;28;20044;-53
2023/05/09 03:36:49;;;;;;;3.22;2.92;;;;;;;21.13;59.33;98786.41;2071306;28;20079;-56
2023/05/09 03:37:49;;;;;;;3.92;3.33;;;;;;;21.13;59.39;98785.59;2070601;28;20056;-47
2023/05/09 03:38:51;;;;;;;5.10;3.25;;;;;;;21.14;59.62;98793.47;2072497;28;20083;-50
2023/05/09 03:39:52;;;;;;;3.70;3.35;;;;;;;21.13;59.74;98786.41;2067596;28;20057;-54
2023/05/09 03:40:54;;;;;;;3.25;2.95;;;;;;;21.15;59.59;98788.91;2068860;28;20222;-49
2023/05/09 03:41:55;;;;;;;3.80;3.30;;;;;;;21.14;59.67;98781.84;2070335;28;20060;-48
2023/05/09 03:42:56;;;;;;;4.45;3.40;;;;;;;21.15;59.58;98781.66;2068069;28;20049;-51
2023/05/09 03:43:57;;;;;;;2.97;2.70;;;;;;;21.10;59.30;98778.78;2068114;28;20464;-54
2023/05/09 03:44:59;;;;;;;3.22;2.95;;;;;;;21.12;59.60;98782.09;2072602;28;20083;-51
2023/05/09 03:46:00;;;;;;;3.58;2.83;;;;;;;21.14;59.58;98782.66;2071939;28;20045;-51
2023/05/09 03:47:01;;;;;;;3.25;2.92;;;;;;;21.13;59.60;98775.63;2069091;28;20128;-46
2023/05/09 03:48:07;;;;;;;2.75;2.53;;;;;;;21.14;59.56;98781.84;2071056;28;20161;-53
2023/05/09 03:49:10;;;;;;;4.35;3.63;;;;;;;21.15;59.36;98773.56;2071607;28;20060;-51
2023/05/09 03:50:10;;;;;;;3.55;3.17;;;;;;;21.12;59.59;98775.88;2070861;28;20711;-53
2023/05/09 03:51:12;;;;;;;3.22;3.03;;;;;;;21.12;59.69;98778.56;2072350;28;20052;-56
2023/05/09 03:52:13;;;;;;;3.50;3.20;;;;;;;21.11;59.75;98777.72;2069811;28;20141;-52
2023/05/09 03:53:15;;;;;;;3.42;3.13;;;;;;;21.05;59.61;98770.50;2073632;28;20466;-54
2023/05/09 03:54:15;;;;;;;3.92;3.40;;;;;;;21.08;59.42;98778.16;2068074;28;20061;-53
2023/05/09 03:55:17;;;;;;;4.10;3.55;;;;;;;21.10;59.73;98776.06;2070914;28;20578;-50
2023/05/09 03:56:17;;;;;;;3.30;3.00;;;;;;;21.12;59.55;98771.28;2070809;28;20191;-57
2023/05/09 03:57:19;;;;;;;3.42;3.13;;;;;;;21.12;59.63;98768.59;2072003;28;20108;-51
2023/05/09 03:58:20;;;;;;;3.67;3.28;;;;;;;21.11;59.29;98766.94;2069996;28;21472;-54
2023/05/09 03:59:21;;;;;;;3.55;3.25;;;;;;;21.11;59.63;98769.63;2068569;28;20422;-51
2023/05/09 04:00:22;;;;;;;3.33;3.03;;;;;;;21.10;59.46;98770.69;2068632;28;20095;-58
2023/05/09 04:01:25;;;;;;;5.40;3.35;;;;;;;21.12;59.23;98771.28;2071701;28;20528;-56
2023/05/09 04:02:27;;;;;;;3.20;2.90;;;;;;;21.14;59.44;98771.88;2072717;28;20055;-56
2023/05/09 04:03:28;;;;;;;4.25;2.95;;;;;;;21.13;59.27;98772.94;2071568;28;20061;-53
2023/05/09 04:04:31;;;;;;;3.17;2.80;;;;;;;21.11;59.53;98783.09;2072351;28;20057;-48
2023/05/09 04:05:32;;;;;;;3.33;3.03;;;;;;;21.11;59.62;98772.31;2068582;28;20049;-58
2023/05/09 04:06:34;;;;;;;3.42;3.15;;;;;;;21.12;59.55;98774.00;2073303;28;20059;-56
2023/05/09 04:07:35;;;;;;;3.45;3.15;;;;;;;21.11;59.33;98777.72;2069603;28;20640;-55
2023/05/09 04:08:36;;;;;;;3.58;3.03;;;;;;;21.11;59.60;98782.28;2072340;28;20060;-59
2023/05/09 04:09:37;;;;;;;3.53;3.22;;;;;;;21.12;59.50;98776.69;2070896;28;20465;-54
2023/05/09 04:10:39;;;;;;;3.55;3.25;;;;;;;21.08;59.61;98775.44;2066297;28;20053;-50
2023/05/09 04:11:40;;;;;;;3.20;2.83;;;;;;;21.09;59.32;98773.56;2070566;28;20056;-52
2023/05/09 04:12:41;;;;;;;4.28;3.72;;;;;;;21.08;59.62;98767.38;2069421;28;20144;-54
2023/05/09 04:13:43;;;;;;;4.68;3.28;;;;;;;21.09;59.60;98774.44;2069884;28;20105;-57
2023/05/09 04:14:44;;;;;;;3.47;2.88;;;;;;;21.07;59.61;98771.13;2071587;28;20107;-58
2023/05/09 04:15:45;;;;;;;3.33;3.03;;;;;;;21.09;59.19;98768.19;2068552;28;20708;-56
2023/05/09 04:16:46;;;;;;;3.38;2.92;;;;;;;21.10;59.14;98772.56;2071411;28;20100;-51
2023/05/09 04:17:48;;;;;;;2.92;2.65;;;;;;;21.11;59.29;98771.50;2068383;28;20058;-55
2023/05/09 04:18:48;;;;;;;3.22;2.88;;;;;;;21.09;59.51;98770.88;2070682;28;20064;-51
2023/05/09 04:19:51;;;;;;;3.15;2.85;;;;;;;21.10;59.33;98764.47;2066751;28;22486;-50
2023/05/09 04:20:52;;;;;;;3.67;3.22;;;;;;;21.06;59.80;98765.91;2069763;28;20107;-49
2023/05/09 04:21:54;;;;;;;4.47;3.15;;;;;;;21.06;59.59;98769.47;2070612;28;20060;-57
2023/05/09 04:22:55;;;;;;;2.88;2.60;;;;;;;21.09;59.68;98766.34;2072538;28;20095;-54
2023/05/09 04:23:57;;;;;;;3.38;3.08;;;;;;;21.10;59.29;98776.06;2065773;28;20107;-51
2023/05/09 04:24:57;;;;;;;3.10;2.80;;;;;;;21.11;59.48;98766.09;2068387;28;20045;-52
2023/05/09 04:25:59;;;;;;;4.53;2.92;;;;;;;21.11;59.46;98766.94;2066753;28;20140;-50
2023/05/09 04:27:00;;;;;;;3.58;3.28;;;;;;;21.11;59.13;98769.63;2069177;28;24242;-52
2023/05/09 04:28:02;;;;;;;3.05;2.72;;;;;;;21.12;59.13;98767.78;2071999;28;20056;-53
2023/05/09 04:29:03;;;;;;;3.60;3.30;;;;;;;21.10;59.39;98767.16;2068228;28;20041;-52
2023/05/09 04:30:06;;;;;;;2.75;2.45;;;;;;;21.09;59.43;98779.81;2070625;28;20052;-58
2023/05/09 04:31:07;;;;;;;2.75;2.55;;;;;;;21.10;59.43;98770.69;2070764;28;20060;-55
2023/05/09 04:32:09;;;;;;;3.53;3.22;;;;;;;21.11;59.45;98777.72;2067681;28;20045;-50
2023/05/09 04:33:10;;;;;;;2.88;2.67;;;;;;;21.10;59.49;98769.84;2068971;28;20114;-49
2023/05/09 04:34:12;;;;;;;3.38;3.08;;;;;;;21.10;59.25;98775.25;2068239;28;20045;-55
2023/05/09 04:35:14;;;;;;;3.60;3.30;;;;;;;21.11;59.35;98776.91;2064473;28;20055;-57
2023/05/09 04:36:15;;;;;;;3.10;2.85;;;;;;;21.09;59.24;98773.56;2068054;28;20061;-58
2023/05/09 04:37:17;;;;;;;3.03;2.78;;;;;;;21.07;59.54;98773.00;2068711;28;20076;-49
2023/05/09 04:38:18;;;;;;;3.22;2.83;;;;;;;21.11;59.10;98772.31;2069033;28;20045;-57
2023/05/09 04:39:19;;;;;;;2.90;2.65;;;;;;;21.10;59.14;98770.69;2068937;28;20054;-59
2023/05/09 04:40:21;;;;;;;2.95;2.65;;;;;;;21.11;59.37;98771.50;2064889;28;20048;-53
2023/05/09 04:41:22;;;;;;;3.75;3.17;;;;;;;21.07;59.47;98765.72;2068897;28;20083;-57
2023/05/09 04:42:24;;;;;;;3.40;2.95;;;;;;;21.06;59.51;98763.22;2068396;28;24827;-53
2023/05/09 04:43:26;;;;;;;3.25;2.92;;;;;;;21.06;59.37;98764.06;2070394;28;21053;-57
2023/05/09 04:44:28;;;;;;;3.30;3.00;;;;;;;21.07;59.58;98770.28;2068297;28;20052;-59
2023/05/09 04:45:29;;;;;;;3.60;2.88;;;;;;;21.04;59.66;98768.84;2068413;28;20049;-55
2023/05/09 04:46:31;;;;;;;3.97;3.05;;;;;;;21.06;59.12;98766.78;2069562;28;20080;-57
2023/05/09 04:47:31;;;;;;;2.83;2.63;;;;;;;21.05;59.19;98773.19;2068001;28;20099;-53
2023/05/09 04:48:34;;;;;;;2.90;2.70;;;;;;;21.07;59.25;98773.00;2070514;28;20052;-57
2023/05/09 04:49:35;;;;;;;3.65;3.30;;;;;;;21.07;59.38;98770.28;2070002;28;20053;-56
2023/05/09 04:50:38;;;;;;;3.05;2.40;;;;;;;21.03;59.30;98788.75;2069479;28;20459;-52
2023/05/09 04:51:38;;;;;;;3.25;2.95;;;;;;;21.03;59.58;98785.22;2071271;28;20049;-52
2023/05/09 04:52:40;;;;;;;2.85;2.65;;;;;;;21.04;59.55;98786.91;2068562;28;20049;-56
2023/05/09 04:53:41;;;;;;;3.67;3.38;;;;;;;21.01;59.58;98796.25;2070297;28;21835;-59
2023/05/09 04:54:42;;;;;;;3.13;2.92;;;;;;;21.03;59.32;98793.31;2069692;28;20065;-57
2023/05/09 04:55:43;;;;;;;2.70;2.45;;;;;;;21.02;59.28;98792.50;2069079;28;20054;-53